sensor_id;sensor_type;location;lat;lon;timestamp;P1;durP1;ratioP1;P2;durP2;ratioP2
23252;SDS011;11795;47.054;15.408;2024-03-02T00:00:01;55.0;;;38.7;;
23252;SDS011;11795;47.054;15.408;2024-03-02T00:02:00;55.0;;;38.7;;
23252;SDS011;11795;47.054;15.408;2024-03-02T00:04:02;49.6;;;36.3;;
23252;SDS011;11795;47.054;15.408;2024-03-02T00:06:00;49.6;;;36.3;;
23252;SDS011;11795;47.054;15.408;2024-03-02T00:08:01;49.6;;;36.3;;
23252;SDS011;11795;47.054;15.408;2024-03-02T00:10:00;53.8;;;39.2;;
23252;SDS011;11795;47.054;15.408;2024-03-02T00:12:00;53.8;;;39.2;;
23252;SDS011;11795;47.054;15.408;2024-03-02T00:14:00;50.1;;;36.5;;
23252;SDS011;11795;47.054;15.408;2024-03-02T00:16:00;50.1;;;36.5;;
23252;SDS011;11795;47.054;15.408;2024-03-02T00:18:00;50.1;;;36.5;;
23252;SDS011;11795;47.054;15.408;2024-03-02T00:20:03;48.3;;;36.3;;
23252;SDS011;11795;47.054;15.408;2024-03-02T00:22:00;48.3;;;36.3;;
23252;SDS011;11795;47.054;15.408;2024-03-02T00:24:01;47.2;;;35.6;;
23252;SDS011;11795;47.054;15.408;2024-03-02T00:26:00;47.2;;;35.6;;
23252;SDS011;11795;47.054;15.408;2024-03-02T00:28:01;47.2;;;35.6;;
23252;SDS011;11795;47.054;15.408;2024-03-02T00:30:00;58.4;;;40.9;;
23252;SDS011;11795;47.054;15.408;2024-03-02T00:32:00;58.4;;;40.9;;
23252;SDS011;11795;47.054;15.408;2024-03-02T00:34:00;60.2;;;40.7;;
23252;SDS011;11795;47.054;15.408;2024-03-02T00:36:01;60.2;;;40.7;;
23252;SDS011;11795;47.054;15.408;2024-03-02T00:38:03;60.2;;;40.7;;
23252;SDS011;11795;47.054;15.408;2024-03-02T00:40:00;57.1;;;40.2;;
23252;SDS011;11795;47.054;15.408;2024-03-02T00:42:00;57.1;;;40.2;;
23252;SDS011;11795;47.054;15.408;2024-03-02T00:44:01;52.9;;;37.3;;
23252;SDS011;11795;47.054;15.408;2024-03-02T00:46:00;52.9;;;37.3;;
23252;SDS011;11795;47.054;15.408;2024-03-02T00:48:00;52.9;;;37.3;;
23252;SDS011;11795;47.054;15.408;2024-03-02T00:50:00;61.3;;;41.0;;
23252;SDS011;11795;47.054;15.408;2024-03-02T00:52:00;61.3;;;41.0;;
23252;SDS011;11795;47.054;15.408;2024-03-02T00:54:01;58.4;;;40.5;;
23252;SDS011;11795;47.054;15.408;2024-03-02T00:56:00;58.4;;;40.5;;
23252;SDS011;11795;47.054;15.408;2024-03-02T00:58:00;58.4;;;40.5;;
23252;SDS011;11795;47.054;15.408;2024-03-02T01:00:00;62.4;;;41.8;;
23252;SDS011;11795;47.054;15.408;2024-03-02T01:02:01;62.4;;;41.8;;
23252;SDS011;11795;47.054;15.408;2024-03-02T01:04:00;59.5;;;40.1;;
23252;SDS011;11795;47.054;15.408;2024-03-02T01:06:00;59.5;;;40.1;;
23252;SDS011;11795;47.054;15.408;2024-03-02T01:08:00;59.5;;;40.1;;
23252;SDS011;11795;47.054;15.408;2024-03-02T01:10:00;54.6;;;38.9;;
23252;SDS011;11795;47.054;15.408;2024-03-02T01:12:00;54.6;;;38.9;;
23252;SDS011;11795;47.054;15.408;2024-03-02T01:14:00;49.5;;;36.2;;
23252;SDS011;11795;47.054;15.408;2024-03-02T01:16:00;49.5;;;36.2;;
23252;SDS011;11795;47.054;15.408;2024-03-02T01:18:00;49.5;;;36.2;;
23252;SDS011;11795;47.054;15.408;2024-03-02T01:20:00;60.0;;;41.5;;
23252;SDS011;11795;47.054;15.408;2024-03-02T01:22:00;60.0;;;41.5;;
23252;SDS011;11795;47.054;15.408;2024-03-02T01:24:01;60.7;;;41.3;;
23252;SDS011;11795;47.054;15.408;2024-03-02T01:26:00;60.7;;;41.3;;
23252;SDS011;11795;47.054;15.408;2024-03-02T01:28:00;60.7;;;41.3;;
23252;SDS011;11795;47.054;15.408;2024-03-02T01:30:00;59.6;;;41.1;;
23252;SDS011;11795;47.054;15.408;2024-03-02T01:32:00;59.6;;;41.1;;
23252;SDS011;11795;47.054;15.408;2024-03-02T01:34:00;60.9;;;40.9;;
23252;SDS011;11795;47.054;15.408;2024-03-02T01:36:00;60.9;;;40.9;;
23252;SDS011;11795;47.054;15.408;2024-03-02T01:38:00;60.9;;;40.9;;
23252;SDS011;11795;47.054;15.408;2024-03-02T01:40:00;58.1;;;39.5;;
23252;SDS011;11795;47.054;15.408;2024-03-02T01:42:00;58.1;;;39.5;;
23252;SDS011;11795;47.054;15.408;2024-03-02T01:44:00;60.8;;;41.3;;
23252;SDS011;11795;47.054;15.408;2024-03-02T01:46:00;60.8;;;41.3;;
23252;SDS011;11795;47.054;15.408;2024-03-02T01:48:00;60.8;;;41.3;;
23252;SDS011;11795;47.054;15.408;2024-03-02T01:50:00;58.8;;;41.4;;
23252;SDS011;11795;47.054;15.408;2024-03-02T01:52:00;58.8;;;41.4;;
23252;SDS011;11795;47.054;15.408;2024-03-02T01:54:00;59.9;;;40.4;;
23252;SDS011;11795;47.054;15.408;2024-03-02T01:56:01;59.9;;;40.4;;
23252;SDS011;11795;47.054;15.408;2024-03-02T01:58:00;59.9;;;40.4;;
23252;SDS011;11795;47.054;15.408;2024-03-02T02:00:00;57.7;;;38.0;;
23252;SDS011;11795;47.054;15.408;2024-03-02T02:02:01;57.7;;;38.0;;
23252;SDS011;11795;47.054;15.408;2024-03-02T02:04:00;53.0;;;35.8;;
23252;SDS011;11795;47.054;15.408;2024-03-02T02:06:00;53.0;;;35.8;;
23252;SDS011;11795;47.054;15.408;2024-03-02T02:08:00;53.0;;;35.8;;
23252;SDS011;11795;47.054;15.408;2024-03-02T02:10:01;52.2;;;35.5;;
23252;SDS011;11795;47.054;15.408;2024-03-02T02:12:00;52.2;;;35.5;;
23252;SDS011;11795;47.054;15.408;2024-03-02T02:14:00;46.3;;;32.5;;
23252;SDS011;11795;47.054;15.408;2024-03-02T02:16:04;46.3;;;32.5;;
23252;SDS011;11795;47.054;15.408;2024-03-02T02:18:00;46.3;;;32.5;;
23252;SDS011;11795;47.054;15.408;2024-03-02T02:20:00;44.8;;;31.8;;
23252;SDS011;11795;47.054;15.408;2024-03-02T02:22:00;44.8;;;31.8;;
23252;SDS011;11795;47.054;15.408;2024-03-02T02:24:03;52.3;;;35.8;;
23252;SDS011;11795;47.054;15.408;2024-03-02T02:26:03;52.3;;;35.8;;
23252;SDS011;11795;47.054;15.408;2024-03-02T02:28:00;52.3;;;35.8;;
23252;SDS011;11795;47.054;15.408;2024-03-02T02:30:01;48.3;;;33.1;;
23252;SDS011;11795;47.054;15.408;2024-03-02T02:32:00;48.3;;;33.1;;
23252;SDS011;11795;47.054;15.408;2024-03-02T02:34:00;43.8;;;30.2;;
23252;SDS011;11795;47.054;15.408;2024-03-02T02:36:00;43.8;;;30.2;;
23252;SDS011;11795;47.054;15.408;2024-03-02T02:38:01;43.8;;;30.2;;
23252;SDS011;11795;47.054;15.408;2024-03-02T02:40:00;44.7;;;31.1;;
23252;SDS011;11795;47.054;15.408;2024-03-02T02:42:03;44.7;;;31.1;;
23252;SDS011;11795;47.054;15.408;2024-03-02T02:44:00;44.7;;;30.9;;
23252;SDS011;11795;47.054;15.408;2024-03-02T02:46:00;44.7;;;30.9;;
23252;SDS011;11795;47.054;15.408;2024-03-02T02:48:02;44.7;;;30.9;;
23252;SDS011;11795;47.054;15.408;2024-03-02T02:50:01;43.5;;;29.5;;
23252;SDS011;11795;47.054;15.408;2024-03-02T02:52:00;43.5;;;29.5;;
23252;SDS011;11795;47.054;15.408;2024-03-02T02:54:00;44.3;;;31.8;;
23252;SDS011;11795;47.054;15.408;2024-03-02T02:56:00;44.3;;;31.8;;
23252;SDS011;11795;47.054;15.408;2024-03-02T02:58:00;44.3;;;31.8;;
23252;SDS011;11795;47.054;15.408;2024-03-02T03:00:00;42.1;;;29.8;;
23252;SDS011;11795;47.054;15.408;2024-03-02T03:02:00;42.1;;;29.8;;
23252;SDS011;11795;47.054;15.408;2024-03-02T03:04:00;42.0;;;29.1;;
23252;SDS011;11795;47.054;15.408;2024-03-02T03:06:00;42.0;;;29.1;;
23252;SDS011;11795;47.054;15.408;2024-03-02T03:08:00;42.0;;;29.1;;
23252;SDS011;11795;47.054;15.408;2024-03-02T03:10:00;42.0;;;29.2;;
23252;SDS011;11795;47.054;15.408;2024-03-02T03:12:00;42.0;;;29.2;;
23252;SDS011;11795;47.054;15.408;2024-03-02T03:14:01;38.5;;;27.4;;
23252;SDS011;11795;47.054;15.408;2024-03-02T03:16:00;38.5;;;27.4;;
23252;SDS011;11795;47.054;15.408;2024-03-02T03:18:00;38.5;;;27.4;;
23252;SDS011;11795;47.054;15.408;2024-03-02T03:20:01;42.5;;;30.2;;
23252;SDS011;11795;47.054;15.408;2024-03-02T03:22:00;42.5;;;30.2;;
23252;SDS011;11795;47.054;15.408;2024-03-02T03:24:00;39.5;;;28.1;;
23252;SDS011;11795;47.054;15.408;2024-03-02T03:26:00;39.5;;;28.1;;
23252;SDS011;11795;47.054;15.408;2024-03-02T03:28:03;39.5;;;28.1;;
23252;SDS011;11795;47.054;15.408;2024-03-02T03:30:00;41.5;;;29.4;;
23252;SDS011;11795;47.054;15.408;2024-03-02T03:32:00;41.5;;;29.4;;
23252;SDS011;11795;47.054;15.408;2024-03-02T03:34:00;38.6;;;28.0;;
23252;SDS011;11795;47.054;15.408;2024-03-02T03:36:00;38.6;;;28.0;;
23252;SDS011;11795;47.054;15.408;2024-03-02T03:38:00;38.6;;;28.0;;
23252;SDS011;11795;47.054;15.408;2024-03-02T03:40:01;39.0;;;27.2;;
23252;SDS011;11795;47.054;15.408;2024-03-02T03:42:00;39.0;;;27.2;;
23252;SDS011;11795;47.054;15.408;2024-03-02T03:44:00;34.5;;;24.3;;
23252;SDS011;11795;47.054;15.408;2024-03-02T03:46:00;34.5;;;24.3;;
23252;SDS011;11795;47.054;15.408;2024-03-02T03:48:00;34.5;;;24.3;;
23252;SDS011;11795;47.054;15.408;2024-03-02T03:50:00;34.3;;;25.6;;
23252;SDS011;11795;47.054;15.408;2024-03-02T03:52:00;34.3;;;25.6;;
23252;SDS011;11795;47.054;15.408;2024-03-02T03:54:00;37.0;;;26.2;;
23252;SDS011;11795;47.054;15.408;2024-03-02T03:56:00;37.0;;;26.2;;
23252;SDS011;11795;47.054;15.408;2024-03-02T03:58:00;37.0;;;26.2;;
23252;SDS011;11795;47.054;15.408;2024-03-02T04:00:00;32.3;;;23.5;;
23252;SDS011;11795;47.054;15.408;2024-03-02T04:02:00;32.3;;;23.5;;
23252;SDS011;11795;47.054;15.408;2024-03-02T04:04:02;36.1;;;26.8;;
23252;SDS011;11795;47.054;15.408;2024-03-02T04:06:00;36.1;;;26.8;;
23252;SDS011;11795;47.054;15.408;2024-03-02T04:08:01;36.1;;;26.8;;
23252;SDS011;11795;47.054;15.408;2024-03-02T04:10:00;36.0;;;26.2;;
23252;SDS011;11795;47.054;15.408;2024-03-02T04:12:00;36.0;;;26.2;;
23252;SDS011;11795;47.054;15.408;2024-03-02T04:14:01;35.9;;;25.3;;
23252;SDS011;11795;47.054;15.408;2024-03-02T04:16:00;35.9;;;25.3;;
23252;SDS011;11795;47.054;15.408;2024-03-02T04:18:00;35.9;;;25.3;;
23252;SDS011;11795;47.054;15.408;2024-03-02T04:20:00;32.6;;;23.6;;
23252;SDS011;11795;47.054;15.408;2024-03-02T04:22:00;32.6;;;23.6;;
23252;SDS011;11795;47.054;15.408;2024-03-02T04:24:00;33.3;;;24.2;;
23252;SDS011;11795;47.054;15.408;2024-03-02T04:26:00;33.3;;;24.2;;
23252;SDS011;11795;47.054;15.408;2024-03-02T04:28:00;33.3;;;24.2;;
23252;SDS011;11795;47.054;15.408;2024-03-02T04:30:00;35.4;;;25.7;;
23252;SDS011;11795;47.054;15.408;2024-03-02T04:32:00;35.4;;;25.7;;
23252;SDS011;11795;47.054;15.408;2024-03-02T04:34:00;36.0;;;26.0;;
23252;SDS011;11795;47.054;15.408;2024-03-02T04:36:00;36.0;;;26.0;;
23252;SDS011;11795;47.054;15.408;2024-03-02T04:38:00;36.0;;;26.0;;
23252;SDS011;11795;47.054;15.408;2024-03-02T04:40:00;36.9;;;27.1;;
23252;SDS011;11795;47.054;15.408;2024-03-02T04:42:00;36.9;;;27.1;;
23252;SDS011;11795;47.054;15.408;2024-03-02T04:44:00;32.6;;;23.7;;
23252;SDS011;11795;47.054;15.408;2024-03-02T04:46:00;32.6;;;23.7;;
23252;SDS011;11795;47.054;15.408;2024-03-02T04:48:00;32.6;;;23.7;;
23252;SDS011;11795;47.054;15.408;2024-03-02T04:50:00;39.2;;;28.0;;
23252;SDS011;11795;47.054;15.408;2024-03-02T04:52:00;39.2;;;28.0;;
23252;SDS011;11795;47.054;15.408;2024-03-02T04:54:00;37.1;;;25.9;;
23252;SDS011;11795;47.054;15.408;2024-03-02T04:58:00;37.1;;;25.9;;
23252;SDS011;11795;47.054;15.408;2024-03-02T05:00:01;32.4;;;24.1;;
23252;SDS011;11795;47.054;15.408;2024-03-02T05:02:00;32.4;;;24.1;;
23252;SDS011;11795;47.054;15.408;2024-03-02T05:04:00;35.2;;;24.5;;
23252;SDS011;11795;47.054;15.408;2024-03-02T05:06:00;35.2;;;24.5;;
23252;SDS011;11795;47.054;15.408;2024-03-02T05:08:00;35.2;;;24.5;;
23252;SDS011;11795;47.054;15.408;2024-03-02T05:10:00;31.2;;;22.1;;
23252;SDS011;11795;47.054;15.408;2024-03-02T05:14:00;32.3;;;22.4;;
23252;SDS011;11795;47.054;15.408;2024-03-02T05:16:00;32.3;;;22.4;;
23252;SDS011;11795;47.054;15.408;2024-03-02T05:18:02;32.3;;;22.4;;
23252;SDS011;11795;47.054;15.408;2024-03-02T05:20:00;33.0;;;23.0;;
23252;SDS011;11795;47.054;15.408;2024-03-02T05:22:00;33.0;;;23.0;;
23252;SDS011;11795;47.054;15.408;2024-03-02T05:24:00;32.7;;;23.7;;
23252;SDS011;11795;47.054;15.408;2024-03-02T05:26:00;32.7;;;23.7;;
23252;SDS011;11795;47.054;15.408;2024-03-02T05:28:00;32.7;;;23.7;;
23252;SDS011;11795;47.054;15.408;2024-03-02T05:30:00;35.9;;;24.2;;
23252;SDS011;11795;47.054;15.408;2024-03-02T05:32:00;35.9;;;24.2;;
23252;SDS011;11795;47.054;15.408;2024-03-02T05:34:00;35.6;;;24.1;;
23252;SDS011;11795;47.054;15.408;2024-03-02T05:36:02;35.6;;;24.1;;
23252;SDS011;11795;47.054;15.408;2024-03-02T05:38:00;35.6;;;24.1;;
23252;SDS011;11795;47.054;15.408;2024-03-02T05:40:00;38.0;;;25.1;;
23252;SDS011;11795;47.054;15.408;2024-03-02T05:42:00;38.0;;;25.1;;
23252;SDS011;11795;47.054;15.408;2024-03-02T05:44:01;38.0;;;25.1;;
23252;SDS011;11795;47.054;15.408;2024-03-02T05:46:00;33.7;;;23.5;;
23252;SDS011;11795;47.054;15.408;2024-03-02T05:48:00;33.7;;;23.5;;
23252;SDS011;11795;47.054;15.408;2024-03-02T05:50:00;31.5;;;23.3;;
23252;SDS011;11795;47.054;15.408;2024-03-02T05:52:00;31.5;;;23.3;;
23252;SDS011;11795;47.054;15.408;2024-03-02T05:54:00;31.5;;;23.3;;
23252;SDS011;11795;47.054;15.408;2024-03-02T05:56:00;37.3;;;24.4;;
23252;SDS011;11795;47.054;15.408;2024-03-02T06:00:00;35.9;;;23.6;;
23252;SDS011;11795;47.054;15.408;2024-03-02T06:02:00;35.9;;;23.6;;
23252;SDS011;11795;47.054;15.408;2024-03-02T06:04:00;35.9;;;23.6;;
23252;SDS011;11795;47.054;15.408;2024-03-02T06:06:00;28.7;;;20.1;;
23252;SDS011;11795;47.054;15.408;2024-03-02T06:08:00;28.7;;;20.1;;
23252;SDS011;11795;47.054;15.408;2024-03-02T06:10:00;33.2;;;22.9;;
23252;SDS011;11795;47.054;15.408;2024-03-02T06:12:00;33.2;;;22.9;;
23252;SDS011;11795;47.054;15.408;2024-03-02T06:14:00;33.2;;;22.9;;
23252;SDS011;11795;47.054;15.408;2024-03-02T06:16:00;34.7;;;23.6;;
23252;SDS011;11795;47.054;15.408;2024-03-02T06:18:00;34.7;;;23.6;;
23252;SDS011;11795;47.054;15.408;2024-03-02T06:20:00;33.7;;;22.8;;
23252;SDS011;11795;47.054;15.408;2024-03-02T06:22:00;33.7;;;22.8;;
23252;SDS011;11795;47.054;15.408;2024-03-02T06:24:01;33.7;;;22.8;;
23252;SDS011;11795;47.054;15.408;2024-03-02T06:26:00;29.8;;;21.9;;
23252;SDS011;11795;47.054;15.408;2024-03-02T06:28:00;29.8;;;21.9;;
23252;SDS011;11795;47.054;15.408;2024-03-02T06:30:00;32.5;;;23.5;;
23252;SDS011;11795;47.054;15.408;2024-03-02T06:32:00;32.5;;;23.5;;
23252;SDS011;11795;47.054;15.408;2024-03-02T06:34:00;32.5;;;23.5;;
23252;SDS011;11795;47.054;15.408;2024-03-02T06:36:00;29.4;;;21.5;;
23252;SDS011;11795;47.054;15.408;2024-03-02T06:38:00;29.4;;;21.5;;
23252;SDS011;11795;47.054;15.408;2024-03-02T06:40:00;30.8;;;21.6;;
23252;SDS011;11795;47.054;15.408;2024-03-02T06:42:00;30.8;;;21.6;;
23252;SDS011;11795;47.054;15.408;2024-03-02T06:44:00;30.8;;;21.6;;
23252;SDS011;11795;47.054;15.408;2024-03-02T06:46:01;27.8;;;20.5;;
23252;SDS011;11795;47.054;15.408;2024-03-02T06:48:00;27.8;;;20.5;;
23252;SDS011;11795;47.054;15.408;2024-03-02T06:50:00;26.5;;;19.2;;
23252;SDS011;11795;47.054;15.408;2024-03-02T06:52:00;26.5;;;19.2;;
23252;SDS011;11795;47.054;15.408;2024-03-02T06:54:00;26.5;;;19.2;;
23252;SDS011;11795;47.054;15.408;2024-03-02T06:56:00;25.7;;;19.3;;
23252;SDS011;11795;47.054;15.408;2024-03-02T06:58:00;25.7;;;19.3;;
23252;SDS011;11795;47.054;15.408;2024-03-02T07:00:00;29.9;;;21.5;;
23252;SDS011;11795;47.054;15.408;2024-03-02T07:02:01;29.9;;;21.5;;
23252;SDS011;11795;47.054;15.408;2024-03-02T07:04:00;29.9;;;21.5;;
23252;SDS011;11795;47.054;15.408;2024-03-02T07:06:00;27.1;;;21.0;;
23252;SDS011;11795;47.054;15.408;2024-03-02T07:08:01;27.1;;;21.0;;
23252;SDS011;11795;47.054;15.408;2024-03-02T07:10:00;27.7;;;21.0;;
23252;SDS011;11795;47.054;15.408;2024-03-02T07:12:00;27.7;;;21.0;;
23252;SDS011;11795;47.054;15.408;2024-03-02T07:14:01;27.7;;;21.0;;
23252;SDS011;11795;47.054;15.408;2024-03-02T07:18:00;29.2;;;21.0;;
23252;SDS011;11795;47.054;15.408;2024-03-02T07:20:00;27.1;;;19.6;;
23252;SDS011;11795;47.054;15.408;2024-03-02T07:22:00;27.1;;;19.6;;
23252;SDS011;11795;47.054;15.408;2024-03-02T07:24:03;27.1;;;19.6;;
23252;SDS011;11795;47.054;15.408;2024-03-02T07:26:01;25.6;;;19.3;;
23252;SDS011;11795;47.054;15.408;2024-03-02T07:28:00;25.6;;;19.3;;
23252;SDS011;11795;47.054;15.408;2024-03-02T07:30:01;25.6;;;19.3;;
23252;SDS011;11795;47.054;15.408;2024-03-02T07:32:00;25.6;;;19.3;;
23252;SDS011;11795;47.054;15.408;2024-03-02T07:34:00;25.6;;;19.3;;
23252;SDS011;11795;47.054;15.408;2024-03-02T07:36:01;28.1;;;22.0;;
23252;SDS011;11795;47.054;15.408;2024-03-02T07:38:00;28.1;;;22.0;;
23252;SDS011;11795;47.054;15.408;2024-03-02T07:40:00;29.2;;;22.2;;
23252;SDS011;11795;47.054;15.408;2024-03-02T07:42:00;29.2;;;22.2;;
23252;SDS011;11795;47.054;15.408;2024-03-02T07:44:00;29.2;;;22.2;;
23252;SDS011;11795;47.054;15.408;2024-03-02T07:46:00;29.2;;;21.5;;
23252;SDS011;11795;47.054;15.408;2024-03-02T07:48:00;29.2;;;21.5;;
23252;SDS011;11795;47.054;15.408;2024-03-02T07:50:00;27.1;;;20.9;;
23252;SDS011;11795;47.054;15.408;2024-03-02T07:52:00;27.1;;;20.9;;
23252;SDS011;11795;47.054;15.408;2024-03-02T07:54:00;27.1;;;20.9;;
23252;SDS011;11795;47.054;15.408;2024-03-02T07:56:02;27.1;;;20.7;;
23252;SDS011;11795;47.054;15.408;2024-03-02T07:58:00;27.1;;;20.7;;
23252;SDS011;11795;47.054;15.408;2024-03-02T08:00:00;26.2;;;20.3;;
23252;SDS011;11795;47.054;15.408;2024-03-02T08:02:00;26.2;;;20.3;;
23252;SDS011;11795;47.054;15.408;2024-03-02T08:04:01;26.2;;;20.3;;
23252;SDS011;11795;47.054;15.408;2024-03-02T08:06:00;24.8;;;19.9;;
23252;SDS011;11795;47.054;15.408;2024-03-02T08:08:00;24.8;;;19.9;;
23252;SDS011;11795;47.054;15.408;2024-03-02T08:10:00;25.5;;;19.8;;
23252;SDS011;11795;47.054;15.408;2024-03-02T08:12:00;25.5;;;19.8;;
23252;SDS011;11795;47.054;15.408;2024-03-02T08:14:00;25.5;;;19.8;;
23252;SDS011;11795;47.054;15.408;2024-03-02T08:16:00;24.5;;;19.3;;
23252;SDS011;11795;47.054;15.408;2024-03-02T08:18:00;24.5;;;19.3;;
23252;SDS011;11795;47.054;15.408;2024-03-02T08:20:00;24.6;;;19.0;;
23252;SDS011;11795;47.054;15.408;2024-03-02T08:22:00;24.6;;;19.0;;
23252;SDS011;11795;47.054;15.408;2024-03-02T08:24:00;24.6;;;19.0;;
23252;SDS011;11795;47.054;15.408;2024-03-02T08:26:00;26.9;;;19.9;;
23252;SDS011;11795;47.054;15.408;2024-03-02T08:28:00;26.9;;;19.9;;
23252;SDS011;11795;47.054;15.408;2024-03-02T08:30:00;24.8;;;18.6;;
23252;SDS011;11795;47.054;15.408;2024-03-02T08:32:00;24.8;;;18.6;;
23252;SDS011;11795;47.054;15.408;2024-03-02T08:34:00;24.8;;;18.6;;
23252;SDS011;11795;47.054;15.408;2024-03-02T08:36:00;27.0;;;20.7;;
23252;SDS011;11795;47.054;15.408;2024-03-02T08:38:01;27.0;;;20.7;;
23252;SDS011;11795;47.054;15.408;2024-03-02T08:40:00;25.2;;;20.0;;
23252;SDS011;11795;47.054;15.408;2024-03-02T08:42:00;25.2;;;20.0;;
23252;SDS011;11795;47.054;15.408;2024-03-02T08:44:00;25.2;;;20.0;;
23252;SDS011;11795;47.054;15.408;2024-03-02T08:46:00;25.0;;;19.9;;
23252;SDS011;11795;47.054;15.408;2024-03-02T08:48:00;25.0;;;19.9;;
23252;SDS011;11795;47.054;15.408;2024-03-02T08:50:00;25.1;;;19.7;;
23252;SDS011;11795;47.054;15.408;2024-03-02T08:52:00;25.1;;;19.7;;
23252;SDS011;11795;47.054;15.408;2024-03-02T08:54:00;25.1;;;19.7;;
23252;SDS011;11795;47.054;15.408;2024-03-02T08:56:00;26.1;;;19.8;;
23252;SDS011;11795;47.054;15.408;2024-03-02T08:58:00;26.1;;;19.8;;
23252;SDS011;11795;47.054;15.408;2024-03-02T09:00:00;24.7;;;19.4;;
23252;SDS011;11795;47.054;15.408;2024-03-02T09:02:00;24.7;;;19.4;;
23252;SDS011;11795;47.054;15.408;2024-03-02T09:04:00;24.7;;;19.4;;
23252;SDS011;11795;47.054;15.408;2024-03-02T09:06:00;24.9;;;19.8;;
23252;SDS011;11795;47.054;15.408;2024-03-02T09:08:00;24.9;;;19.8;;
23252;SDS011;11795;47.054;15.408;2024-03-02T09:10:00;25.9;;;20.2;;
23252;SDS011;11795;47.054;15.408;2024-03-02T09:12:00;25.9;;;20.2;;
23252;SDS011;11795;47.054;15.408;2024-03-02T09:14:00;25.9;;;20.2;;
23252;SDS011;11795;47.054;15.408;2024-03-02T09:16:00;26.1;;;19.5;;
23252;SDS011;11795;47.054;15.408;2024-03-02T09:18:00;26.1;;;19.5;;
23252;SDS011;11795;47.054;15.408;2024-03-02T09:20:00;25.9;;;19.8;;
23252;SDS011;11795;47.054;15.408;2024-03-02T09:22:03;25.9;;;19.8;;
23252;SDS011;11795;47.054;15.408;2024-03-02T09:24:02;25.9;;;19.8;;
23252;SDS011;11795;47.054;15.408;2024-03-02T09:26:00;26.3;;;20.4;;
23252;SDS011;11795;47.054;15.408;2024-03-02T09:28:00;26.3;;;20.4;;
23252;SDS011;11795;47.054;15.408;2024-03-02T09:30:00;28.4;;;21.4;;
23252;SDS011;11795;47.054;15.408;2024-03-02T09:32:00;28.4;;;21.4;;
23252;SDS011;11795;47.054;15.408;2024-03-02T09:34:00;28.4;;;21.4;;
23252;SDS011;11795;47.054;15.408;2024-03-02T09:36:00;28.3;;;21.2;;
23252;SDS011;11795;47.054;15.408;2024-03-02T09:38:01;28.3;;;21.2;;
23252;SDS011;11795;47.054;15.408;2024-03-02T09:40:00;26.5;;;19.8;;
23252;SDS011;11795;47.054;15.408;2024-03-02T09:42:00;26.5;;;19.8;;
23252;SDS011;11795;47.054;15.408;2024-03-02T09:44:00;26.5;;;19.8;;
23252;SDS011;11795;47.054;15.408;2024-03-02T09:46:00;25.6;;;19.8;;
23252;SDS011;11795;47.054;15.408;2024-03-02T09:48:00;25.6;;;19.8;;
23252;SDS011;11795;47.054;15.408;2024-03-02T09:50:00;25.0;;;19.3;;
23252;SDS011;11795;47.054;15.408;2024-03-02T09:52:00;25.0;;;19.3;;
23252;SDS011;11795;47.054;15.408;2024-03-02T09:54:00;25.0;;;19.3;;
23252;SDS011;11795;47.054;15.408;2024-03-02T09:56:00;25.3;;;19.6;;
23252;SDS011;11795;47.054;15.408;2024-03-02T09:58:00;25.3;;;19.6;;
23252;SDS011;11795;47.054;15.408;2024-03-02T10:00:00;24.4;;;18.1;;
23252;SDS011;11795;47.054;15.408;2024-03-02T10:02:01;24.4;;;18.1;;
23252;SDS011;11795;47.054;15.408;2024-03-02T10:04:01;24.4;;;18.1;;
23252;SDS011;11795;47.054;15.408;2024-03-02T10:08:02;24.2;;;18.7;;
23252;SDS011;11795;47.054;15.408;2024-03-02T10:10:12;24.2;;;17.8;;
23252;SDS011;11795;47.054;15.408;2024-03-02T10:12:03;24.2;;;17.8;;
23252;SDS011;11795;47.054;15.408;2024-03-02T10:14:04;24.2;;;17.8;;
23252;SDS011;11795;47.054;15.408;2024-03-02T10:16:02;23.9;;;17.2;;
23252;SDS011;11795;47.054;15.408;2024-03-02T10:18:00;23.9;;;17.2;;
23252;SDS011;11795;47.054;15.408;2024-03-02T10:20:04;23.4;;;16.5;;
23252;SDS011;11795;47.054;15.408;2024-03-02T10:22:00;23.4;;;16.5;;
23252;SDS011;11795;47.054;15.408;2024-03-02T10:24:06;23.4;;;16.5;;
23252;SDS011;11795;47.054;15.408;2024-03-02T10:26:00;20.2;;;15.7;;
23252;SDS011;11795;47.054;15.408;2024-03-02T10:28:00;20.2;;;15.7;;
23252;SDS011;11795;47.054;15.408;2024-03-02T10:30:02;20.4;;;15.7;;
23252;SDS011;11795;47.054;15.408;2024-03-02T10:32:01;20.4;;;15.7;;
23252;SDS011;11795;47.054;15.408;2024-03-02T10:34:02;20.4;;;15.7;;
23252;SDS011;11795;47.054;15.408;2024-03-02T10:36:01;18.7;;;14.9;;
23252;SDS011;11795;47.054;15.408;2024-03-02T10:38:00;18.7;;;14.9;;
23252;SDS011;11795;47.054;15.408;2024-03-02T10:40:04;18.2;;;14.5;;
23252;SDS011;11795;47.054;15.408;2024-03-02T10:42:03;18.2;;;14.5;;
23252;SDS011;11795;47.054;15.408;2024-03-02T10:44:01;18.2;;;14.5;;
23252;SDS011;11795;47.054;15.408;2024-03-02T10:46:01;17.4;;;14.1;;
23252;SDS011;11795;47.054;15.408;2024-03-02T10:48:00;17.4;;;14.1;;
23252;SDS011;11795;47.054;15.408;2024-03-02T10:50:00;15.6;;;13.5;;
23252;SDS011;11795;47.054;15.408;2024-03-02T10:52:00;15.6;;;13.5;;
23252;SDS011;11795;47.054;15.408;2024-03-02T10:54:01;15.6;;;13.5;;
23252;SDS011;11795;47.054;15.408;2024-03-02T10:56:02;16.0;;;13.4;;
23252;SDS011;11795;47.054;15.408;2024-03-02T10:58:02;16.0;;;13.4;;
23252;SDS011;11795;47.054;15.408;2024-03-02T11:00:02;16.3;;;13.6;;
23252;SDS011;11795;47.054;15.408;2024-03-02T11:02:00;16.3;;;13.6;;
23252;SDS011;11795;47.054;15.408;2024-03-02T11:04:00;16.3;;;13.6;;
23252;SDS011;11795;47.054;15.408;2024-03-02T11:06:00;16.5;;;13.1;;
23252;SDS011;11795;47.054;15.408;2024-03-02T11:08:04;16.5;;;13.1;;
23252;SDS011;11795;47.054;15.408;2024-03-02T11:10:01;15.2;;;11.9;;
23252;SDS011;11795;47.054;15.408;2024-03-02T11:12:03;15.2;;;11.9;;
23252;SDS011;11795;47.054;15.408;2024-03-02T11:14:01;15.2;;;11.9;;
23252;SDS011;11795;47.054;15.408;2024-03-02T11:16:03;15.3;;;12.7;;
23252;SDS011;11795;47.054;15.408;2024-03-02T11:18:00;15.3;;;12.7;;
23252;SDS011;11795;47.054;15.408;2024-03-02T11:20:01;15.5;;;11.8;;
23252;SDS011;11795;47.054;15.408;2024-03-02T11:22:01;15.5;;;11.8;;
23252;SDS011;11795;47.054;15.408;2024-03-02T11:28:01;18.2;;;12.8;;
23252;SDS011;11795;47.054;15.408;2024-03-02T11:30:00;17.6;;;13.7;;
23252;SDS011;11795;47.054;15.408;2024-03-02T11:32:00;17.6;;;13.7;;
23252;SDS011;11795;47.054;15.408;2024-03-02T11:36:00;14.9;;;11.1;;
23252;SDS011;11795;47.054;15.408;2024-03-02T11:38:01;14.9;;;11.1;;
23252;SDS011;11795;47.054;15.408;2024-03-02T11:40:00;13.9;;;11.2;;
23252;SDS011;11795;47.054;15.408;2024-03-02T11:42:00;13.9;;;11.2;;
23252;SDS011;11795;47.054;15.408;2024-03-02T11:44:00;13.9;;;11.2;;
23252;SDS011;11795;47.054;15.408;2024-03-02T11:46:00;15.5;;;11.1;;
23252;SDS011;11795;47.054;15.408;2024-03-02T11:48:00;15.5;;;11.1;;
23252;SDS011;11795;47.054;15.408;2024-03-02T11:50:00;14.5;;;10.9;;
23252;SDS011;11795;47.054;15.408;2024-03-02T11:52:01;14.5;;;10.9;;
23252;SDS011;11795;47.054;15.408;2024-03-02T11:54:00;14.5;;;10.9;;
23252;SDS011;11795;47.054;15.408;2024-03-02T11:56:01;14.6;;;11.5;;
23252;SDS011;11795;47.054;15.408;2024-03-02T11:58:01;14.6;;;11.5;;
23252;SDS011;11795;47.054;15.408;2024-03-02T12:00:04;10.8;;;8.4;;
23252;SDS011;11795;47.054;15.408;2024-03-02T12:02:02;10.8;;;8.4;;
23252;SDS011;11795;47.054;15.408;2024-03-02T12:04:00;10.8;;;8.4;;
23252;SDS011;11795;47.054;15.408;2024-03-02T12:06:00;12.3;;;8.9;;
23252;SDS011;11795;47.054;15.408;2024-03-02T12:08:01;12.3;;;8.9;;